Time;durP1;ratioP1;P1;durP2;ratioP2;P2;SDS_P1;SDS_P2;PMS_P1;PMS_P2;Temp;Humidity;BMP_temperature;BMP_pressure;BME280_temperature;BME280_humidity;BME280_pressure;Samples;Min_cycle;Max_cycle;Signal;HPM_P1;HPM_P2
2022/12/16 00:00:31;;;;;;;13.63;9.05;;;;;;;-0.73;100.00;97749.19;5049400;28;20041;-62
2022/12/16 00:03:21;;;;;;;13.43;8.52;;;;;;;-0.82;100.00;97738.38;5049206;28;20057;-61
2022/12/16 00:06:07;;;;;;;13.85;8.38;;;;;;;-0.80;100.00;97746.84;5050222;28;20507;-60
2022/12/16 00:08:51;;;;;;;13.80;8.07;;;;;;;-0.79;100.00;97743.38;5049900;28;20064;-60
2022/12/16 00:11:36;;;;;;;10.63;7.18;;;;;;;-0.81;100.00;97722.03;5050022;28;20048;-61
2022/12/16 00:14:20;;;;;;;12.00;7.30;;;;;;;-0.90;100.00;97723.19;5049005;28;20056;-60
2022/12/16 00:17:05;;;;;;;13.40;8.00;;;;;;;-0.87;100.00;97717.97;5050457;28;20099;-60
2022/12/16 00:19:50;;;;;;;12.15;7.50;;;;;;;-0.86;100.00;97705.94;5037300;28;20055;-60
2022/12/16 00:22:34;;;;;;;10.73;7.30;;;;;;;-0.98;100.00;97696.97;5050207;28;20073;-61
2022/12/16 00:25:20;;;;;;;9.88;6.85;;;;;;;-0.86;100.00;97693.06;5050065;28;20064;-59
2022/12/16 00:28:05;;;;;;;11.60;7.63;;;;;;;-0.89;100.00;97685.47;5050101;28;20132;-61
2022/12/16 00:30:51;;;;;;;10.55;7.53;;;;;;;-0.87;100.00;97678.53;5049486;28;20410;-59
2022/12/16 00:33:37;;;;;;;11.55;7.53;;;;;;;-0.86;100.00;97664.78;5049715;28;20056;-63
2022/12/16 00:36:22;;;;;;;12.13;7.45;;;;;;;-0.97;100.00;97657.50;5046154;28;20098;-60
2022/12/16 00:39:07;;;;;;;12.55;7.43;;;;;;;-0.92;100.00;97663.28;5049407;28;20069;-60
2022/12/16 00:41:51;;;;;;;15.15;7.85;;;;;;;-0.93;100.00;97659.03;5049511;28;20040;-60
2022/12/16 00:44:36;;;;;;;14.23;7.78;;;;;;;-0.94;100.00;97653.94;5048238;28;20149;-61
2022/12/16 00:47:21;;;;;;;10.50;7.22;;;;;;;-0.99;100.00;97649.00;5049700;28;20500;-60
2022/12/16 00:50:06;;;;;;;10.40;7.00;;;;;;;-0.93;100.00;97645.34;5048573;28;20044;-60
2022/12/16 00:52:50;;;;;;;11.50;7.38;;;;;;;-0.92;100.00;97637.56;5049170;28;20056;-60
2022/12/16 00:55:35;;;;;;;8.52;5.95;;;;;;;-0.90;100.00;97640.09;5039261;28;20041;-60
2022/12/16 00:58:19;;;;;;;9.38;6.05;;;;;;;-0.84;100.00;97632.13;5047669;28;20049;-60
2022/12/16 01:01:05;;;;;;;9.15;5.72;;;;;;;-0.88;100.00;97610.81;5049271;28;20049;-60
2022/12/16 01:03:50;;;;;;;9.38;5.93;;;;;;;-0.87;100.00;97602.22;5041083;28;20046;-60
2022/12/16 01:06:35;;;;;;;7.40;4.40;;;;;;;-0.84;100.00;97603.81;5040048;28;20120;-59
2022/12/16 01:09:20;;;;;;;9.27;5.90;;;;;;;-0.93;100.00;97596.50;5048800;28;20068;-59
2022/12/16 01:12:05;;;;;;;9.63;5.53;;;;;;;-0.94;100.00;97589.66;5049441;28;20056;-60
2022/12/16 01:14:49;;;;;;;9.05;5.95;;;;;;;-0.93;100.00;97583.63;5048909;28;20040;-60
2022/12/16 01:17:34;;;;;;;11.70;6.30;;;;;;;-0.94;100.00;97594.78;5048776;28;20443;-60
2022/12/16 01:20:19;;;;;;;7.40;5.25;;;;;;;-0.97;100.00;97589.78;5048899;28;20069;-60
2022/12/16 01:23:03;;;;;;;12.40;6.10;;;;;;;-0.95;100.00;97581.13;5049116;28;20243;-60
2022/12/16 01:25:52;;;;;;;11.05;6.95;;;;;;;-0.91;100.00;97585.22;5047504;28;20053;-60
2022/12/16 01:28:37;;;;;;;15.25;7.30;;;;;;;-1.05;100.00;97564.38;5041560;28;20493;-60
2022/12/16 01:31:22;;;;;;;34.95;8.40;;;;;;;-1.07;100.00;97566.16;5046196;28;20135;-60
2022/12/16 01:34:08;;;;;;;10.57;7.25;;;;;;;-1.02;100.00;97546.25;5046886;28;20049;-60
2022/12/16 01:36:52;;;;;;;17.58;7.85;;;;;;;-1.00;100.00;97547.84;5043809;28;20041;-60
2022/12/16 01:39:37;;;;;;;14.05;7.13;;;;;;;-1.05;100.00;97533.53;5048926;28;20071;-61
2022/12/16 01:42:23;;;;;;;23.38;7.57;;;;;;;-0.97;100.00;97530.63;5043170;28;20045;-60
2022/12/16 01:45:28;;;;;;;23.42;7.13;;;;;;;-1.08;100.00;97516.50;5048788;28;20045;-60
2022/12/16 01:48:20;;;;;;;18.23;6.45;;;;;;;-1.06;100.00;97522.41;5048090;28;20103;-60
2022/12/16 01:51:12;;;;;;;21.55;6.50;;;;;;;-1.08;100.00;97515.66;5048927;28;20098;-60
2022/12/16 01:54:08;;;;;;;14.18;6.50;;;;;;;-1.07;100.00;97501.91;5034379;28;20499;-60
2022/12/16 01:56:59;;;;;;;28.48;6.75;;;;;;;-1.09;100.00;97496.81;5048054;28;20052;-60
2022/12/16 01:59:48;;;;;;;20.13;6.72;;;;;;;-1.08;100.00;97492.53;5047248;28;20055;-60
2022/12/16 02:02:33;;;;;;;19.70;6.18;;;;;;;-1.07;100.00;97495.03;5048526;28;20396;-60
2022/12/16 02:05:21;;;;;;;19.60;7.13;;;;;;;-1.09;100.00;97498.56;5042650;28;20041;-60
2022/12/16 02:08:08;;;;;;;26.60;7.40;;;;;;;-1.10;100.00;97496.88;5047301;28;20068;-60
2022/12/16 02:11:31;;;;;;;29.98;7.88;;;;;;;-1.09;100.00;97499.38;5048523;28;20134;-60
2022/12/16 02:14:19;;;;;;;23.75;7.57;;;;;;;-1.05;100.00;97494.97;5021692;28;20517;-60
2022/12/16 02:17:18;;;;;;;17.50;7.38;;;;;;;-1.02;100.00;97499.97;5010763;28;20098;-60
2022/12/16 02:20:11;;;;;;;17.23;7.07;;;;;;;-1.03;100.00;97493.16;5016219;28;20053;-60
2022/12/16 02:23:14;;;;;;;13.13;7.18;;;;;;;-1.05;100.00;97490.66;5011118;28;20552;-59
2022/12/16 02:26:04;;;;;;;;;;;;;;;-0.93;100.00;97489.28;5025870;28;20054;-60
2022/12/16 02:29:30;;;;;;;12.07;7.03;;;;;;;-0.97;100.00;97476.63;5025321;28;20487;-60
2022/12/16 02:32:21;;;;;;;9.88;6.47;;;;;;;-0.90;100.00;97484.03;5025479;28;20453;-60
2022/12/16 02:35:31;;;;;;;12.27;7.13;;;;;;;-0.95;100.00;97482.56;5025889;28;20064;-60
2022/12/16 02:38:37;;;;;;;12.70;7.25;;;;;;;-0.97;100.00;97487.75;5028019;28;20554;-60
2022/12/16 02:41:33;;;;;;;10.85;7.50;;;;;;;-0.89;100.00;97493.44;5022191;28;20124;-60
2022/12/16 02:44:19;;;;;;;10.32;7.50;;;;;;;-0.90;100.00;97504.59;5029013;28;20049;-59
2022/12/16 02:47:04;;;;;;;9.82;7.30;;;;;;;-0.88;100.00;97515.66;5014911;28;20128;-59
2022/12/16 02:49:51;;;;;;;10.57;7.15;;;;;;;-0.85;100.00;97501.00;5034997;28;20045;-58
2022/12/16 02:52:36;;;;;;;10.23;7.32;;;;;;;-0.82;100.00;97509.44;5051978;28;20567;-60
2022/12/16 02:55:32;;;;;;;12.05;7.78;;;;;;;-0.81;100.00;97518.81;5038508;28;20082;-59
2022/12/16 02:58:38;;;;;;;10.75;7.53;;;;;;;-0.79;100.00;97509.31;5049578;28;20093;-61
2022/12/16 03:01:43;;;;;;;11.98;7.47;;;;;;;-0.75;100.00;97497.97;5050996;28;20037;-59
2022/12/16 03:04:53;;;;;;;13.93;8.85;;;;;;;-0.77;100.00;97496.38;5046339;28;20053;-59
2022/12/16 03:07:40;;;;;;;11.60;7.60;;;;;;;-0.73;100.00;97490.19;5049326;28;20100;-58
2022/12/16 03:10:34;;;;;;;13.23;8.13;;;;;;;-0.71;100.00;97500.41;5051027;28;20061;-59
2022/12/16 03:13:20;;;;;;;13.48;8.88;;;;;;;-0.71;100.00;97490.13;5049971;28;20088;-58
2022/12/16 03:16:08;;;;;;;11.85;8.40;;;;;;;-0.69;100.00;97475.47;5026916;28;20423;-59
2022/12/16 03:18:56;;;;;;;12.48;8.20;;;;;;;-0.66;100.00;97478.75;5048247;28;20538;-59
2022/12/16 03:22:07;;;;;;;13.40;8.82;;;;;;;-0.64;100.00;97458.09;5045922;28;20056;-59
2022/12/16 03:24:52;;;;;;;11.65;8.25;;;;;;;-0.66;100.00;97454.75;5042616;28;20492;-59
2022/12/16 03:28:09;;;;;;;13.25;9.35;;;;;;;-0.65;100.00;97434.09;5050462;28;20125;-61
2022/12/16 03:31:04;;;;;;;11.57;8.40;;;;;;;-0.64;100.00;97430.63;5006612;28;20046;-59
2022/12/16 03:34:01;;;;;;;12.07;7.93;;;;;;;-0.55;100.00;97411.38;5008233;28;20050;-60
2022/12/16 03:36:51;;;;;;;10.63;7.38;;;;;;;-0.49;100.00;97410.28;4994652;28;20049;-60
2022/12/16 03:39:42;;;;;;;10.18;7.25;;;;;;;-0.56;100.00;97393.44;5003488;28;20108;-62
2022/12/16 03:42:29;;;;;;;10.88;7.43;;;;;;;-0.46;100.00;97404.13;5004880;28;20058;-59
2022/12/16 03:45:17;;;;;;;10.00;6.63;;;;;;;-0.40;100.00;97403.84;5007684;28;20064;-60
2022/12/16 03:48:02;;;;;;;10.15;6.78;;;;;;;-0.46;100.00;97384.41;5007184;28;20050;-59
2022/12/16 03:50:46;;;;;;;10.60;7.13;;;;;;;-0.43;100.00;97398.84;5006251;28;20113;-60
2022/12/16 03:53:31;;;;;;;10.35;6.65;;;;;;;-0.47;100.00;97387.03;5007103;28;20501;-59
2022/12/16 03:56:16;;;;;;;8.88;6.10;;;;;;;-0.42;100.00;97388.47;5005683;28;20097;-59
2022/12/16 03:59:01;;;;;;;9.20;6.07;;;;;;;-0.42;100.00;97400.50;5005267;28;20074;-59
2022/12/16 04:01:45;;;;;;;9.38;6.47;;;;;;;-0.36;100.00;97405.41;4996700;28;20054;-60
2022/12/16 04:04:30;;;;;;;8.35;5.70;;;;;;;-0.30;100.00;97399.13;5004042;28;20053;-60
2022/12/16 04:07:20;;;;;;;8.13;5.95;;;;;;;-0.35;100.00;97398.50;5011461;28;20049;-59
2022/12/16 04:10:06;;;;;;;8.50;6.03;;;;;;;-0.36;100.00;97371.94;5046121;28;20053;-59
2022/12/16 04:25:11;;;;;;;8.80;6.15;;;;;;;-0.34;100.00;97349.53;5048543;28;20061;-59
2022/12/16 04:27:57;;;;;;;8.93;6.38;;;;;;;-0.34;100.00;97340.97;5048586;28;20563;-60
2022/12/16 04:30:42;;;;;;;9.63;6.70;;;;;;;-0.38;100.00;97333.38;5046764;28;20045;-59
